Main page
METAR-TAF:

METAR-TAF

Airports :

Aberdeen Airport

Aberdeen, Scotland

latitude: 57-12N, longitude: 002-13W, elevation: 65 m

Current weather observation

The report was made 16 minutes ago, at 03:20 UTC
Wind 2 kt from variable directions
Temperature 10°C
Humidity 76%
Pressure 1024 hPa
Visibility 10 km or more

METAR: EGPD 120320Z AUTO VRB02KT 9999 NCD 10/06 Q1024 NOSIG

Time: 04:36 (03:36 UTC)

Forecast

The report was made 4 hours and 40 minutes ago, at 22:56 UTC
Forecast valid from 12 at 00 UTC to 12 at 24 UTC
Wind 6 kt from the West
Visibility 10 km or more
Few clouds at a height of 4000 ft
Becoming
from 12 at 12 UTC to 12 at 15 UTC
Wind 10 kt from the South
Probability 30% :
Temporary
from 12 at 21 UTC to 12 at 24 UTC
Visibility: 6000 m
rain

TAF: EGPD 112256Z 1200/1224 26006KT 9999 FEW040 BECMG 1212/1215 17010KT PROB30 TEMPO 1221/1224 6000 RA

Weather observations and forecasts of more than 4000 airports (METAR and TAF reports).

The available stations are represented by yellow and red dots on the map.

Hover mouse over dot to see the name of the station.

Then click to see weather observations and forecasts.

To change the map : click on the green buttons with a black cross to zoom in, on the green button with a dash to zoom out, or on the green arrows for adjacent maps.


METAR-TAF: